Time;durP1;ratioP1;P1;durP2;ratioP2;P2;SDS_P1;SDS_P2;PMS_P1;PMS_P2;Temp;Humidity;BMP_temperature;BMP_pressure;BME280_temperature;BME280_humidity;BME280_pressure;Samples;Min_cycle;Max_cycle;Signal;HPM_P1;HPM_P2
2021/10/11 00:00:06;;;;;;;22.50;13.10;;;3.50;99.90;;;;;;5039579;28;20045;-72
2021/10/11 00:02:33;;;;;;;21.43;12.20;;;3.40;99.90;;;;;;5038882;28;20614;-73
2021/10/11 00:05:00;;;;;;;22.40;13.13;;;3.30;99.90;;;;;;5037464;28;20053;-71
2021/10/11 00:07:27;;;;;;;23.47;12.33;;;3.30;99.90;;;;;;5038734;28;20052;-73
2021/10/11 00:09:54;;;;;;;23.37;12.60;;;3.40;99.90;;;;;;5039272;28;20098;-71
2021/10/11 00:12:24;;;;;;;20.77;11.50;;;3.30;99.90;;;;;;5038482;28;20382;-74
2021/10/11 00:14:51;;;;;;;25.90;14.50;;;3.40;99.90;;;;;;5038908;28;20513;-72
2021/10/11 00:17:20;;;;;;;20.27;11.77;;;3.40;99.90;;;;;;5038101;28;20461;-70
2021/10/11 00:19:50;;;;;;;22.37;13.00;;;3.40;99.90;;;;;;5039274;28;20106;-73
2021/10/11 00:22:17;;;;;;;27.57;12.23;;;3.30;99.90;;;;;;5038029;28;20494;-74
2021/10/11 00:24:45;;;;;;;22.53;12.33;;;3.30;99.90;;;;;;5038432;28;20045;-74
2021/10/11 00:27:12;;;;;;;21.67;13.33;;;3.30;99.90;;;;;;5038498;28;20103;-74
2021/10/11 00:29:39;;;;;;;24.97;12.73;;;3.20;99.90;;;;;;5038519;28;20045;-72
2021/10/11 00:32:08;;;;;;;24.53;12.60;;;3.20;99.90;;;;;;5038792;28;20218;-73
2021/10/11 00:34:36;;;;;;;20.83;11.27;;;3.20;99.90;;;;;;5037537;28;20622;-72
2021/10/11 00:37:05;;;;;;;21.47;11.17;;;3.30;99.90;;;;;;5038355;28;20049;-73
2021/10/11 00:39:32;;;;;;;21.30;11.93;;;3.20;99.90;;;;;;5038679;28;20056;-70
2021/10/11 00:41:59;;;;;;;20.13;11.50;;;3.10;99.90;;;;;;5037849;28;20049;-73
2021/10/11 00:44:26;;;;;;;20.20;11.10;;;3.10;99.90;;;;;;5038494;28;20041;-76
2021/10/11 00:46:53;;;;;;;21.10;12.07;;;3.00;99.90;;;;;;5037153;28;20497;-73
2021/10/11 00:49:20;;;;;;;23.83;11.60;;;3.00;99.90;;;;;;5038689;28;20575;-70
2021/10/11 00:51:49;;;;;;;21.27;11.53;;;3.00;99.90;;;;;;5037869;28;20045;-72
2021/10/11 00:54:16;;;;;;;20.57;11.27;;;3.10;99.90;;;;;;5039213;28;20071;-72
2021/10/11 00:56:45;;;;;;;20.67;11.53;;;3.10;99.90;;;;;;5032743;28;20053;-70
2021/10/11 00:59:12;;;;;;;18.40;10.67;;;3.10;99.90;;;;;;5033365;28;20418;-73
2021/10/11 01:01:39;;;;;;;20.83;11.47;;;3.20;99.90;;;;;;5033005;28;20107;-71
2021/10/11 01:04:06;;;;;;;19.40;11.67;;;3.20;99.90;;;;;;5032963;28;20072;-71
2021/10/11 01:06:36;;;;;;;22.27;10.90;;;3.30;99.90;;;;;;5031994;28;20055;-71
2021/10/11 01:09:05;;;;;;;21.97;11.33;;;3.30;99.90;;;;;;5033250;28;20052;-72
2021/10/11 01:11:33;;;;;;;24.00;12.60;;;3.20;99.90;;;;;;5033092;28;20099;-71
2021/10/11 01:14:00;;;;;;;21.80;12.97;;;3.00;99.90;;;;;;5033432;28;20099;-72
2021/10/11 01:16:27;;;;;;;21.83;12.93;;;2.90;99.90;;;;;;5031546;28;20061;-72
2021/10/11 01:18:55;;;;;;;23.30;12.37;;;2.80;99.90;;;;;;5033738;28;20045;-72
2021/10/11 01:21:24;;;;;;;21.63;11.77;;;2.90;99.90;;;;;;5031612;28;20045;-72
2021/10/11 01:23:52;;;;;;;21.73;11.17;;;2.80;99.90;;;;;;5032052;28;20053;-72
2021/10/11 01:26:19;;;;;;;21.00;11.97;;;2.60;99.90;;;;;;5032140;28;20049;-72
2021/10/11 01:28:46;;;;;;;21.93;11.30;;;2.60;99.90;;;;;;5033429;28;20091;-73
2021/10/11 01:31:14;;;;;;;26.80;12.77;;;2.50;99.90;;;;;;5032940;28;20095;-72
2021/10/11 01:33:41;;;;;;;18.80;10.60;;;2.50;99.90;;;;;;5032678;28;20049;-73
2021/10/11 01:36:08;;;;;;;20.00;11.43;;;2.50;99.90;;;;;;5031726;28;20089;-72
2021/10/11 01:38:36;;;;;;;22.53;10.93;;;2.50;99.90;;;;;;5032934;28;20041;-72
2021/10/11 01:41:03;;;;;;;23.87;11.60;;;2.60;99.90;;;;;;5032607;28;20049;-73
2021/10/11 01:43:30;;;;;;;21.47;11.17;;;2.50;99.90;;;;;;5032835;28;20563;-75
2021/10/11 01:45:57;;;;;;;22.00;11.70;;;2.50;99.90;;;;;;5030447;28;20398;-74
2021/10/11 01:48:24;;;;;;;23.60;11.70;;;2.40;99.90;;;;;;5031132;28;20489;-71
2021/10/11 01:50:51;;;;;;;22.67;11.57;;;2.40;99.90;;;;;;5032169;28;20095;-71
2021/10/11 01:53:18;;;;;;;20.70;11.67;;;2.50;99.90;;;;;;5031689;28;20056;-71
2021/10/11 01:55:47;;;;;;;19.10;11.53;;;2.40;99.90;;;;;;5031942;28;20494;-73
2021/10/11 01:58:14;;;;;;;24.20;11.67;;;2.40;99.90;;;;;;5032810;28;20091;-71
2021/10/11 02:00:41;;;;;;;21.13;11.17;;;2.40;99.90;;;;;;5032552;28;20041;-74
2021/10/11 02:03:08;;;;;;;19.50;11.13;;;2.40;99.90;;;;;;5032825;28;20505;-71
2021/10/11 02:05:35;;;;;;;17.40;10.23;;;2.30;99.90;;;;;;5030687;28;20555;-74
2021/10/11 02:08:03;;;;;;;24.17;10.80;;;2.40;99.90;;;;;;5032861;28;20074;-71
2021/10/11 02:10:30;;;;;;;18.47;10.77;;;2.30;99.90;;;;;;5032717;28;20150;-73
2021/10/11 02:12:59;;;;;;;22.97;10.77;;;2.20;99.90;;;;;;5032700;28;20070;-72
2021/10/11 02:15:27;;;;;;;21.73;11.13;;;2.30;99.90;;;;;;5031432;28;20103;-71
2021/10/11 02:17:56;;;;;;;24.20;11.63;;;2.40;99.90;;;;;;5032974;28;20076;-71
2021/10/11 02:20:24;;;;;;;20.17;9.83;;;2.30;99.90;;;;;;5035251;28;20429;-71
2021/10/11 02:22:51;;;;;;;18.03;9.40;;;2.30;99.90;;;;;;5035627;28;20041;-71
2021/10/11 02:25:18;;;;;;;19.87;10.23;;;2.30;99.90;;;;;;5035980;28;20060;-74
2021/10/11 02:27:45;;;;;;;20.07;10.20;;;2.30;99.90;;;;;;5036080;28;20410;-72
2021/10/11 02:30:13;;;;;;;19.83;10.10;;;2.30;99.90;;;;;;5037100;28;20040;-72
2021/10/11 02:32:41;;;;;;;19.33;10.07;;;2.20;99.90;;;;;;5035546;28;20057;-74
2021/10/11 02:35:09;;;;;;;16.83;9.77;;;2.30;99.90;;;;;;5035372;28;20071;-71
2021/10/11 02:37:36;;;;;;;15.87;8.97;;;2.20;99.90;;;;;;5035816;28;20037;-72
2021/10/11 02:40:05;;;;;;;20.83;11.00;;;2.20;99.90;;;;;;5035468;28;20106;-71
2021/10/11 02:42:32;;;;;;;19.67;10.43;;;2.10;99.90;;;;;;5036583;28;20500;-72
2021/10/11 02:44:59;;;;;;;17.30;9.53;;;2.20;99.90;;;;;;5036104;28;20044;-73
2021/10/11 02:47:27;;;;;;;20.13;10.53;;;2.20;99.90;;;;;;5034151;28;21105;-74
2021/10/11 02:49:54;;;;;;;22.37;10.77;;;2.10;99.90;;;;;;5036716;28;20103;-71
2021/10/11 02:52:21;;;;;;;22.67;10.07;;;2.00;99.90;;;;;;5035860;28;20290;-72
2021/10/11 02:54:48;;;;;;;18.30;9.30;;;2.10;99.90;;;;;;5036081;28;20549;-74
2021/10/11 02:57:15;;;;;;;17.70;9.87;;;2.10;99.90;;;;;;5035285;28;20053;-72
2021/10/11 02:59:42;;;;;;;19.57;10.00;;;2.00;99.90;;;;;;5036629;28;20049;-72
2021/10/11 03:02:09;;;;;;;15.43;8.73;;;2.10;99.90;;;;;;5036298;28;20048;-72
2021/10/11 03:04:38;;;;;;;20.10;10.13;;;2.10;99.90;;;;;;5031099;28;20053;-73
2021/10/11 03:07:05;;;;;;;19.73;9.63;;;2.10;99.90;;;;;;5031703;28;20048;-72
2021/10/11 03:09:32;;;;;;;18.40;9.60;;;2.10;99.90;;;;;;5032655;28;20501;-71
2021/10/11 03:11:59;;;;;;;19.37;10.37;;;2.00;99.90;;;;;;5032343;28;20512;-70
2021/10/11 03:14:26;;;;;;;17.47;9.63;;;2.00;99.90;;;;;;5031812;28;20048;-71
2021/10/11 03:16:53;;;;;;;22.93;10.27;;;1.90;99.90;;;;;;5032575;28;20048;-72
2021/10/11 03:19:20;;;;;;;24.17;10.97;;;1.80;99.90;;;;;;5032156;28;20221;-71
2021/10/11 03:21:48;;;;;;;18.50;9.97;;;1.70;99.90;;;;;;5030803;28;20127;-71
2021/10/11 03:24:15;;;;;;;18.80;9.70;;;1.60;99.90;;;;;;5031418;28;20098;-71
2021/10/11 03:26:42;;;;;;;19.37;10.33;;;1.70;99.90;;;;;;5031653;28;20513;-72
2021/10/11 03:29:09;;;;;;;18.87;10.00;;;1.60;99.90;;;;;;5030897;28;20444;-72
2021/10/11 03:31:36;;;;;;;16.53;9.50;;;1.50;99.90;;;;;;5031896;28;20098;-74
2021/10/11 03:34:04;;;;;;;20.10;10.50;;;1.40;99.90;;;;;;5030718;28;20402;-72
2021/10/11 03:36:31;;;;;;;19.03;10.20;;;1.30;99.90;;;;;;5029393;28;20103;-73
2021/10/11 03:38:59;;;;;;;17.93;10.40;;;1.40;99.90;;;;;;5029085;28;20098;-74
2021/10/11 03:41:26;;;;;;;19.77;11.07;;;1.40;99.90;;;;;;5029118;28;20533;-72
2021/10/11 03:43:53;;;;;;;18.23;10.80;;;1.40;99.90;;;;;;5030871;28;20049;-79
2021/10/11 03:46:20;;;;;;;24.80;11.87;;;1.40;99.90;;;;;;5029616;28;20162;-73
2021/10/11 03:48:47;;;;;;;17.93;11.17;;;1.50;99.90;;;;;;5029971;28;20048;-71
2021/10/11 03:51:14;;;;;;;20.50;11.37;;;1.60;99.90;;;;;;5030589;28;20091;-72
2021/10/11 03:53:41;;;;;;;18.87;10.83;;;1.60;99.90;;;;;;5030735;28;20048;-71
2021/10/11 03:56:09;;;;;;;22.20;11.53;;;1.60;99.90;;;;;;5030211;28;20056;-74
2021/10/11 03:58:37;;;;;;;21.90;11.23;;;1.60;99.90;;;;;;5031421;28;20787;-74
2021/10/11 04:01:04;;;;;;;19.10;10.90;;;1.60;99.90;;;;;;5032345;28;20464;-71
2021/10/11 04:03:31;;;;;;;17.23;10.20;;;1.70;99.90;;;;;;5031211;28;20061;-71
2021/10/11 04:05:58;;;;;;;19.67;10.97;;;1.70;99.90;;;;;;5031048;28;20222;-72
2021/10/11 04:08:33;;;;;;;20.43;11.10;;;1.60;99.90;;;;;;5031665;28;20056;-72
2021/10/11 04:11:05;;;;;;;22.37;11.40;;;1.70;99.90;;;;;;5032512;28;20523;-71
2021/10/11 04:13:33;;;;;;;17.73;10.17;;;1.60;99.90;;;;;;5032967;28;20096;-71
2021/10/11 04:16:01;;;;;;;22.30;10.63;;;1.60;99.90;;;;;;5030725;28;20134;-73
2021/10/11 04:18:28;;;;;;;21.27;11.37;;;1.60;99.90;;;;;;5031625;28;20048;-74
2021/10/11 04:20:54;;;;;;;21.77;10.23;;;1.70;99.90;;;;;;5032244;28;20095;-72
2021/10/11 04:23:21;;;;;;;19.77;9.83;;;1.70;99.90;;;;;;5029873;28;20134;-71
2021/10/11 04:25:49;;;;;;;22.73;10.77;;;1.70;99.90;;;;;;5031153;28;20057;-72
2021/10/11 04:28:16;;;;;;;22.23;9.93;;;1.70;99.90;;;;;;5031112;28;20103;-72
2021/10/11 04:30:44;;;;;;;19.90;10.67;;;1.80;99.90;;;;;;5031445;28;20509;-72
2021/10/11 04:33:13;;;;;;;20.83;10.00;;;1.70;99.90;;;;;;5031324;28;20753;-74
2021/10/11 04:35:40;;;;;;;21.03;10.80;;;1.70;99.90;;;;;;5030036;28;20060;-74
2021/10/11 04:38:07;;;;;;;23.40;10.83;;;1.70;99.90;;;;;;5031752;28;20049;-71
2021/10/11 04:40:35;;;;;;;19.60;10.40;;;1.50;99.90;;;;;;5031517;28;20049;-71
2021/10/11 04:43:03;;;;;;;20.50;10.57;;;1.50;99.90;;;;;;5030454;28;20094;-71
2021/10/11 04:45:30;;;;;;;26.60;12.50;;;1.60;99.90;;;;;;5029830;28;20099;-73
2021/10/11 04:48:01;;;;;;;19.97;10.73;;;1.60;99.90;;;;;;5031561;28;20465;-73
2021/10/11 04:50:29;;;;;;;25.87;11.90;;;1.60;99.90;;;;;;5030984;28;20049;-74
2021/10/11 04:52:56;;;;;;;20.83;10.40;;;1.50;99.90;;;;;;5030585;28;20080;-74
2021/10/11 04:55:23;;;;;;;23.67;10.13;;;1.50;99.90;;;;;;5030506;28;20053;-73
2021/10/11 04:57:51;;;;;;;21.40;11.33;;;1.60;99.90;;;;;;5029747;28;20110;-73
2021/10/11 05:00:19;;;;;;;22.20;11.40;;;1.50;99.90;;;;;;5031023;28;20629;-74
2021/10/11 05:02:46;;;;;;;20.37;10.83;;;1.70;99.90;;;;;;5029760;28;20045;-71
2021/10/11 05:05:15;;;;;;;28.93;12.70;;;1.70;99.90;;;;;;5029836;28;20049;-72
2021/10/11 05:07:42;;;;;;;27.93;13.67;;;1.60;99.90;;;;;;5030614;28;20045;-74
2021/10/11 05:10:10;;;;;;;29.40;12.63;;;1.70;99.90;;;;;;5029618;28;20041;-71
2021/10/11 05:12:37;;;;;;;26.47;13.43;;;1.80;99.90;;;;;;5030075;28;20084;-71
2021/10/11 05:15:04;;;;;;;23.80;11.37;;;1.80;99.90;;;;;;5029967;28;20579;-72
2021/10/11 05:17:31;;;;;;;25.93;11.97;;;1.70;99.90;;;;;;5030647;28;20057;-72
2021/10/11 05:19:58;;;;;;;23.93;12.27;;;1.70;99.90;;;;;;5030921;28;20048;-72
2021/10/11 05:22:27;;;;;;;21.43;11.53;;;1.70;99.90;;;;;;5028934;28;20094;-71
2021/10/11 05:24:54;;;;;;;21.17;11.50;;;1.80;99.90;;;;;;5029213;28;20436;-72
2021/10/11 05:27:21;;;;;;;26.37;13.03;;;1.90;99.90;;;;;;5028751;28;20110;-72
2021/10/11 05:29:48;;;;;;;26.50;13.07;;;1.90;99.90;;;;;;5030029;28;20045;-72
2021/10/11 05:32:15;;;;;;;22.77;11.53;;;1.90;99.90;;;;;;5030152;28;20128;-74
2021/10/11 05:34:42;;;;;;;24.80;12.27;;;1.90;99.90;;;;;;5031666;28;20045;-72
2021/10/11 05:37:09;;;;;;;31.37;12.90;;;2.00;99.90;;;;;;5029436;28;20076;-72
2021/10/11 05:39:39;;;;;;;25.00;12.70;;;2.10;99.90;;;;;;5030348;28;20059;-72
2021/10/11 05:42:08;;;;;;;22.33;11.53;;;2.20;99.90;;;;;;5030420;28;20106;-72
2021/10/11 05:44:35;;;;;;;18.80;10.37;;;2.00;99.90;;;;;;5029809;28;20461;-73
2021/10/11 05:47:02;;;;;;;22.00;10.40;;;2.00;99.90;;;;;;5030834;28;20123;-72
2021/10/11 05:49:30;;;;;;;22.87;11.67;;;2.10;99.90;;;;;;5030525;28;20523;-71
2021/10/11 05:51:56;;;;;;;20.17;11.20;;;2.10;99.90;;;;;;5031195;28;20079;-74
2021/10/11 05:54:23;;;;;;;18.80;10.50;;;2.10;99.90;;;;;;5028350;28;20084;-72
2021/10/11 05:56:52;;;;;;;22.33;10.73;;;2.10;99.90;;;;;;5028378;28;20049;-73
2021/10/11 05:59:19;;;;;;;20.73;10.93;;;2.20;99.90;;;;;;5029619;28;20053;-71
2021/10/11 06:01:46;;;;;;;23.57;10.73;;;2.20;99.90;;;;;;5029477;28;20049;-74
2021/10/11 06:04:13;;;;;;;21.53;11.10;;;2.20;99.90;;;;;;5027882;28;20068;-74
2021/10/11 06:06:40;;;;;;;18.97;10.57;;;2.20;99.90;;;;;;5029394;28;20094;-72
2021/10/11 06:09:07;;;;;;;21.13;10.93;;;2.20;99.90;;;;;;5029735;28;20394;-71
2021/10/11 06:11:34;;;;;;;26.87;12.20;;;2.30;99.90;;;;;;5028792;28;20053;-72
2021/10/11 06:14:02;;;;;;;21.97;11.40;;;2.40;99.90;;;;;;5032036;28;21012;-75
2021/10/11 06:16:29;;;;;;;22.60;10.80;;;2.50;99.90;;;;;;5029196;28;20344;-74
2021/10/11 06:18:56;;;;;;;22.13;11.27;;;2.50;99.90;;;;;;5029721;28;20130;-71
2021/10/11 06:21:23;;;;;;;19.47;10.47;;;2.60;99.90;;;;;;5028690;28;20041;-71
2021/10/11 06:23:51;;;;;;;23.13;10.83;;;2.60;99.90;;;;;;5028900;28;20053;-72
2021/10/11 06:26:19;;;;;;;21.90;11.47;;;2.70;99.90;;;;;;5029319;28;20398;-74
2021/10/11 06:28:46;;;;;;;21.37;11.53;;;2.80;99.90;;;;;;5028703;28;20044;-72
2021/10/11 06:31:14;;;;;;;22.53;11.20;;;3.00;99.90;;;;;;5030145;28;20102;-73
2021/10/11 06:33:41;;;;;;;20.73;11.27;;;3.00;99.90;;;;;;5029896;28;20053;-74
2021/10/11 06:36:08;;;;;;;19.83;10.53;;;3.00;99.90;;;;;;5029175;28;20099;-72
2021/10/11 06:38:36;;;;;;;19.17;10.67;;;3.20;99.90;;;;;;5029608;28;20301;-71
2021/10/11 06:41:03;;;;;;;22.00;10.87;;;3.30;99.90;;;;;;5030705;28;20192;-72
2021/10/11 06:43:30;;;;;;;21.13;12.13;;;3.50;99.90;;;;;;5029194;28;20138;-72
2021/10/11 06:45:57;;;;;;;21.63;12.13;;;3.60;99.90;;;;;;5028863;28;20362;-75
2021/10/11 06:48:25;;;;;;;24.47;12.17;;;3.60;99.90;;;;;;5030424;28;20103;-74
2021/10/11 06:50:52;;;;;;;20.40;11.90;;;3.50;99.90;;;;;;5028955;28;20599;-72
2021/10/11 06:53:19;;;;;;;25.50;11.73;;;3.70;99.90;;;;;;5029431;28;20072;-71
2021/10/11 06:55:46;;;;;;;21.80;11.90;;;3.90;99.90;;;;;;5028922;28;20541;-72
2021/10/11 06:58:13;;;;;;;21.13;11.90;;;3.90;99.90;;;;;;5028529;28;20079;-71
2021/10/11 07:00:40;;;;;;;20.53;11.00;;;4.00;99.90;;;;;;5029478;28;20076;-72
2021/10/11 07:03:08;;;;;;;20.77;11.57;;;4.20;99.90;;;;;;5028837;28;20057;-72
2021/10/11 07:05:36;;;;;;;20.53;11.13;;;4.10;99.90;;;;;;5027922;28;20060;-71
2021/10/11 07:08:09;;;;;;;20.17;11.27;;;4.30;99.90;;;;;;5033512;28;20279;-72
2021/10/11 07:10:36;;;;;;;19.83;11.73;;;4.40;99.90;;;;;;5032855;28;20536;-73
2021/10/11 07:13:04;;;;;;;20.50;11.47;;;4.70;99.90;;;;;;5034014;28;20049;-72
2021/10/11 07:15:31;;;;;;;20.43;11.37;;;4.90;99.90;;;;;;5031717;28;20873;-71
2021/10/11 07:17:58;;;;;;;23.87;11.80;;;4.70;99.90;;;;;;5032760;28;20072;-73
2021/10/11 07:20:25;;;;;;;21.50;10.83;;;4.50;99.90;;;;;;5032329;28;20479;-71
2021/10/11 07:22:54;;;;;;;19.27;11.03;;;4.60;99.90;;;;;;5032675;28;20586;-73
2021/10/11 07:25:21;;;;;;;19.43;10.90;;;4.80;99.90;;;;;;5032166;28;20041;-72
2021/10/11 07:27:48;;;;;;;22.10;11.30;;;5.10;99.90;;;;;;5033518;28;20043;-72
2021/10/11 07:30:15;;;;;;;21.83;11.47;;;5.30;99.90;;;;;;5033197;28;20049;-71
2021/10/11 07:32:42;;;;;;;22.00;10.80;;;5.50;99.90;;;;;;5031824;28;20052;-73
2021/10/11 07:35:10;;;;;;;18.03;10.63;;;5.60;99.90;;;;;;5033738;28;20048;-73
2021/10/11 07:37:36;;;;;;;20.47;10.27;;;5.80;99.90;;;;;;5032254;28;20041;-73
2021/10/11 07:40:06;;;;;;;21.93;10.70;;;5.80;99.90;;;;;;5032308;28;20090;-73
2021/10/11 07:42:33;;;;;;;20.63;10.40;;;5.80;99.90;;;;;;5031974;28;20053;-71
2021/10/11 07:45:02;;;;;;;19.23;10.47;;;5.70;99.90;;;;;;5031920;28;20095;-73
2021/10/11 07:47:29;;;;;;;20.90;11.53;;;5.50;99.90;;;;;;5031298;28;20045;-71
2021/10/11 07:49:56;;;;;;;18.60;10.87;;;5.70;99.90;;;;;;5032556;28;21393;-74
2021/10/11 07:52:23;;;;;;;20.13;10.90;;;5.90;99.90;;;;;;5031833;28;20060;-71
2021/10/11 07:54:50;;;;;;;20.37;10.40;;;6.10;99.90;;;;;;5031741;28;20678;-72
2021/10/11 07:57:19;;;;;;;18.80;10.00;;;7.00;99.90;;;;;;5034351;28;20063;-70
2021/10/11 07:59:46;;;;;;;20.10;11.07;;;7.40;99.90;;;;;;5032134;28;20053;-72
2021/10/11 08:02:13;;;;;;;20.05;10.10;;;7.60;99.90;;;;;;5031325;28;20100;-71
2021/10/11 08:04:40;;;;;;;20.45;10.27;;;7.00;99.90;;;;;;5033988;28;20052;-72
2021/10/11 08:07:07;;;;;;;19.33;9.93;;;7.00;99.90;;;;;;5034342;28;20464;-71
2021/10/11 08:09:34;;;;;;;23.77;10.90;;;7.10;99.90;;;;;;5035139;28;20049;-73
2021/10/11 08:12:01;;;;;;;17.63;9.88;;;7.20;99.90;;;;;;5034744;28;20807;-72
2021/10/11 08:14:29;;;;;;;20.50;10.52;;;7.20;99.90;;;;;;5033313;28;20049;-73
2021/10/11 08:16:56;;;;;;;19.50;10.32;;;7.50;99.90;;;;;;5032513;28;20167;-74
2021/10/11 08:19:24;;;;;;;20.65;10.10;;;7.60;99.90;;;;;;5032503;28;20045;-72
2021/10/11 08:21:51;;;;;;;19.63;10.05;;;7.90;99.90;;;;;;5032265;28;20505;-71
2021/10/11 08:24:18;;;;;;;18.27;10.48;;;8.90;99.90;;;;;;5031434;28;20420;-70
2021/10/11 08:26:45;;;;;;;19.50;10.25;;;10.80;99.90;;;;;;5030463;28;20057;-71
2021/10/11 08:29:12;;;;;;;17.30;9.48;;;11.80;99.90;;;;;;5031588;28;20463;-72
2021/10/11 08:31:41;;;;;;;18.33;10.13;;;11.90;99.90;;;;;;5031896;28;20145;-72
2021/10/11 08:34:08;;;;;;;20.63;10.27;;;11.80;99.90;;;;;;5031608;28;20103;-72
2021/10/11 08:36:35;;;;;;;18.25;9.77;;;13.00;99.90;;;;;;5030507;28;20041;-71
2021/10/11 08:39:02;;;;;;;18.52;9.98;;;13.60;99.90;;;;;;5029333;28;20045;-73
2021/10/11 08:41:30;;;;;;;19.88;10.88;;;14.90;99.30;;;;;;5031863;28;20053;-71
2021/10/11 08:43:57;;;;;;;17.88;10.50;;;14.80;98.40;;;;;;5031295;28;20898;-72
2021/10/11 08:46:24;;;;;;;16.90;10.20;;;16.40;96.30;;;;;;5028220;28;20080;-70
2021/10/11 08:48:53;;;;;;;15.52;10.18;;;16.50;95.90;;;;;;5029844;28;20084;-71
2021/10/11 08:51:20;;;;;;;16.30;10.20;;;16.50;95.20;;;;;;5028815;28;20055;-73
2021/10/11 08:53:47;;;;;;;15.75;10.35;;;17.30;93.20;;;;;;5028385;28;20052;-71
2021/10/11 08:56:14;;;;;;;18.55;10.30;;;17.00;94.10;;;;;;5028628;28;20793;-73
2021/10/11 08:58:42;;;;;;;17.55;10.10;;;16.10;95.00;;;;;;5030454;28;20501;-70
2021/10/11 09:01:09;;;;;;;15.48;10.15;;;17.40;93.50;;;;;;5030342;28;20106;-71
2021/10/11 09:03:36;;;;;;;15.85;10.00;;;18.30;92.70;;;;;;5032603;28;20057;-70
2021/10/11 09:06:06;;;;;;;14.50;9.52;;;18.80;90.80;;;;;;5034050;28;20045;-73
2021/10/11 09:08:33;;;;;;;17.10;10.68;;;16.90;91.80;;;;;;5032526;28;20564;-73
2021/10/11 09:11:03;;;;;;;14.00;9.60;;;16.00;93.10;;;;;;5031877;28;20523;-71
2021/10/11 09:13:32;;;;;;;16.73;10.30;;;16.50;93.20;;;;;;5031303;28;20118;-71
2021/10/11 09:16:11;;;;;;;16.63;10.70;;;18.10;91.90;;;;;;5030819;28;20049;-71
2021/10/11 09:18:39;;;;;;;12.90;9.80;;;18.30;91.80;;;;;;5031139;28;20110;-71
2021/10/11 09:21:09;;;;;;;14.90;10.02;;;19.40;91.00;;;;;;5030878;28;20787;-73
2021/10/11 09:23:36;;;;;;;17.60;10.07;;;18.90;90.90;;;;;;5032302;28;20505;-71
2021/10/11 09:26:17;;;;;;;17.30;10.60;;;18.30;90.50;;;;;;5032648;28;20509;-71
2021/10/11 09:28:54;;;;;;;13.75;10.20;;;19.00;89.50;;;;;;5033813;28;20053;-73
2021/10/11 09:31:35;;;;;;;15.43;10.25;;;18.40;90.60;;;;;;5033487;28;20389;-71
2021/10/11 09:34:02;;;;;;;13.57;10.57;;;19.60;90.40;;;;;;5033142;28;20444;-71
2021/10/11 09:36:30;;;;;;;16.17;10.68;;;18.70;90.20;;;;;;5030795;28;20138;-70
2021/10/11 09:39:02;;;;;;;17.15;10.27;;;17.80;90.60;;;;;;5030551;28;20080;-71
2021/10/11 09:41:29;;;;;;;16.70;10.48;;;19.20;90.40;;;;;;5029471;28;20052;-70
2021/10/11 09:43:56;;;;;;;14.93;10.30;;;19.50;91.00;;;;;;5030416;28;20049;-73
2021/10/11 09:46:25;;;;;;;16.30;10.23;;;20.40;90.10;;;;;;5027675;28;20482;-71
2021/10/11 09:48:53;;;;;;;16.00;10.35;;;20.10;88.20;;;;;;5027039;28;20049;-70
2021/10/11 09:51:22;;;;;;;17.40;10.52;;;20.20;89.00;;;;;;5027288;28;20055;-71
2021/10/11 09:53:52;;;;;;;14.10;9.88;;;20.60;88.90;;;;;;5027767;28;20052;-72
2021/10/11 09:56:19;;;;;;;14.57;10.32;;;21.10;87.50;;;;;;5026309;28;20090;-73
2021/10/11 09:58:46;;;;;;;16.42;9.40;;;20.90;84.70;;;;;;5026606;28;20056;-71
2021/10/11 10:01:13;;;;;;;16.02;10.80;;;19.50;90.20;;;;;;5027592;28;20040;-71
2021/10/11 10:03:40;;;;;;;12.45;9.75;;;19.80;90.40;;;;;;5028210;28;20056;-70
2021/10/11 10:06:09;;;;;;;17.27;10.23;;;20.00;90.30;;;;;;5027970;28;20417;-70
2021/10/11 10:08:39;;;;;;;19.27;9.93;;;19.20;91.20;;;;;;5027467;28;20448;-71
2021/10/11 10:11:08;;;;;;;16.20;10.65;;;19.50;91.10;;;;;;5028167;28;20094;-71
2021/10/11 10:13:47;;;;;;;17.50;10.32;;;21.30;88.50;;;;;;5026303;28;20052;-70
2021/10/11 10:16:16;;;;;;;16.58;10.48;;;20.70;90.30;;;;;;5030909;28;20065;-73
2021/10/11 10:18:44;;;;;;;15.65;10.45;;;21.70;88.30;;;;;;5031442;28;20445;-70
2021/10/11 10:21:13;;;;;;;21.05;11.35;;;23.60;86.60;;;;;;5030912;28;20059;-73
2021/10/11 10:23:43;;;;;;;15.77;11.27;;;21.40;84.70;;;;;;5031607;28;20049;-71
2021/10/11 10:26:13;;;;;;;16.58;11.60;;;20.60;87.20;;;;;;5031687;28;20111;-71
2021/10/11 10:28:45;;;;;;;17.02;11.40;;;21.90;84.80;;;;;;5031831;28;20057;-70
2021/10/11 10:31:25;;;;;;;17.95;11.35;;;20.60;90.70;;;;;;5031850;28;20052;-70
2021/10/11 10:33:52;;;;;;;17.50;11.48;;;21.10;90.30;;;;;;5029841;28;20085;-72
2021/10/11 10:36:20;;;;;;;17.58;11.13;;;21.50;88.60;;;;;;5026726;28;20585;-73
2021/10/11 10:39:02;;;;;;;17.83;11.27;;;23.80;84.80;;;;;;5029115;28;20044;-72
2021/10/11 10:41:31;;;;;;;17.70;11.60;;;21.30;85.40;;;;;;5033425;28;20098;-71
2021/10/11 10:44:10;;;;;;;17.60;11.07;;;19.80;90.00;;;;;;5035400;28;20111;-71
2021/10/11 10:46:37;;;;;;;15.68;11.18;;;19.00;91.80;;;;;;5035261;28;20103;-72
2021/10/11 10:49:04;;;;;;;19.02;11.85;;;16.60;93.70;;;;;;5035936;28;20107;-72
2021/10/11 10:51:31;;;;;;;19.90;11.98;;;15.40;96.40;;;;;;5034980;28;20057;-72
2021/10/11 10:53:59;;;;;;;16.42;9.25;;;15.40;97.30;;;;;;5034457;28;20501;-70
2021/10/11 10:56:26;;;;;;;19.92;12.20;;;15.40;97.70;;;;;;5030408;28;20497;-70
2021/10/11 10:59:04;;;;;;;22.80;13.40;;;15.40;97.80;;;;;;5033196;28;20195;-71
2021/10/11 11:01:31;;;;;;;19.38;11.80;;;15.50;97.90;;;;;;5033738;28;20051;-70
2021/10/11 11:03:58;;;;;;;20.75;12.60;;;15.20;98.10;;;;;;5033547;28;20146;-71
2021/10/11 11:06:30;;;;;;;19.23;13.00;;;15.00;98.90;;;;;;5032544;28;20045;-71
2021/10/11 11:08:59;;;;;;;22.65;13.45;;;14.90;99.20;;;;;;5032865;28;20052;-71
2021/10/11 11:11:26;;;;;;;22.27;13.63;;;14.80;99.00;;;;;;5031205;28;20206;-72
2021/10/11 11:13:55;;;;;;;24.27;13.93;;;14.90;99.60;;;;;;5032469;28;20666;-71
2021/10/11 11:16:28;;;;;;;26.33;14.20;;;14.70;99.30;;;;;;5032517;28;20060;-71
2021/10/11 11:18:56;;;;;;;21.80;14.20;;;14.40;99.90;;;;;;5031494;28;20555;-73
2021/10/11 11:21:23;;;;;;;23.02;13.80;;;14.30;99.90;;;;;;5030350;28;20582;-71
2021/10/11 11:23:50;;;;;;;20.42;13.30;;;14.30;99.90;;;;;;5031679;28;20118;-70
2021/10/11 11:26:18;;;;;;;32.50;15.10;;;14.40;99.90;;;;;;5030828;28;20045;-74
2021/10/11 11:28:46;;;;;;;20.27;12.93;;;14.30;99.90;;;;;;5034426;28;20076;-70
2021/10/11 11:31:14;;;;;;;22.55;13.18;;;14.30;99.90;;;;;;5031914;28;20140;-71
2021/10/11 11:33:48;;;;;;;21.83;12.13;;;14.20;99.90;;;;;;5030609;28;20056;-70
2021/10/11 11:36:16;;;;;;;24.40;13.30;;;14.00;99.90;;;;;;5032894;28;20056;-70
2021/10/11 11:38:43;;;;;;;27.08;14.70;;;13.90;99.90;;;;;;5035402;28;20048;-71
2021/10/11 11:41:11;;;;;;;23.38;13.00;;;13.70;99.90;;;;;;5035673;28;20253;-71
2021/10/11 11:43:40;;;;;;;26.98;13.02;;;13.70;99.90;;;;;;5034382;28;20049;-71
2021/10/11 11:46:08;;;;;;;20.65;12.27;;;13.60;99.90;;;;;;5033463;28;20045;-73
2021/10/11 11:48:37;;;;;;;27.17;13.43;;;13.50;99.90;;;;;;5034675;28;20073;-70
2021/10/11 11:51:08;;;;;;;32.83;13.60;;;13.40;99.90;;;;;;5034901;28;20071;-70
2021/10/11 11:53:37;;;;;;;20.70;13.10;;;13.40;99.90;;;;;;5034788;28;20045;-70
2021/10/11 11:56:06;;;;;;;21.60;12.68;;;13.20;99.90;;;;;;5029017;28;20056;-71
2021/10/11 11:58:35;;;;;;;21.67;13.55;;;13.10;99.90;;;;;;5029980;28;20052;-71
2021/10/11 12:01:05;;;;;;;25.83;14.98;;;12.90;99.90;;;;;;5030191;28;20055;-71
2021/10/11 12:03:37;;;;;;;28.23;15.35;;;12.70;99.90;;;;;;5029428;28;20064;-73
2021/10/11 12:06:06;;;;;;;28.60;15.15;;;12.60;99.90;;;;;;5028672;28;20220;-70
2021/10/11 12:08:33;;;;;;;30.17;16.35;;;12.40;99.90;;;;;;5028745;28;20091;-73
2021/10/11 12:11:03;;;;;;;28.23;16.83;;;12.30;99.90;;;;;;5032573;28;20509;-71
2021/10/11 12:13:31;;;;;;;33.10;17.52;;;12.30;99.90;;;;;;5032752;28;20049;-71
2021/10/11 12:16:00;;;;;;;36.67;19.02;;;12.30;99.90;;;;;;5033995;28;20127;-71
2021/10/11 12:18:36;;;;;;;31.40;18.13;;;12.10;99.90;;;;;;5033240;28;20103;-72
2021/10/11 12:21:05;;;;;;;31.13;19.42;;;12.20;99.90;;;;;;5033691;28;20142;-72
2021/10/11 12:23:38;;;;;;;37.00;20.73;;;12.00;99.90;;;;;;5033448;28;20088;-70
2021/10/11 12:26:06;;;;;;;35.22;19.17;;;11.80;99.90;;;;;;5032801;28;20311;-70
2021/10/11 12:28:33;;;;;;;37.55;18.25;;;11.90;99.90;;;;;;5032120;28;20568;-70
2021/10/11 12:31:03;;;;;;;34.42;19.15;;;11.80;99.90;;;;;;5034016;28;20056;-72
2021/10/11 12:33:37;;;;;;;33.25;18.23;;;11.80;99.90;;;;;;5033603;28;20048;-70
2021/10/11 12:36:07;;;;;;;34.78;18.70;;;11.70;99.90;;;;;;5033185;28;20052;-73
2021/10/11 12:38:39;;;;;;;33.35;17.63;;;11.80;99.90;;;;;;5033799;28;20414;-69